createdAt,value
2022-09-12T00:01:23.065Z,16.79
2022-09-12T00:04:01.243Z,16.77
2022-09-12T00:06:34.746Z,16.65
2022-09-12T00:09:07.182Z,16.44
2022-09-12T00:11:39.766Z,16.61
2022-09-12T00:14:12.239Z,16.54
2022-09-12T00:16:40.780Z,16.43
2022-09-12T00:19:09.176Z,16.51
2022-09-12T00:21:39.231Z,16.43
2022-09-12T00:24:07.415Z,16.39
2022-09-12T00:26:35.598Z,16.45
2022-09-12T00:29:03.116Z,16.20
2022-09-12T00:31:31.161Z,16.41
2022-09-12T00:34:00.972Z,16.53
2022-09-12T00:36:31.077Z,16.51
2022-09-12T00:38:59.101Z,16.48
2022-09-12T00:41:32.303Z,16.58
2022-09-12T00:44:48.742Z,16.33
2022-09-12T00:47:29.056Z,15.91
2022-09-12T00:50:03.581Z,16.19
2022-09-12T00:52:53.027Z,16.14
2022-09-12T00:55:32.460Z,16.21
2022-09-12T00:58:15.304Z,16.03
2022-09-12T01:00:43.346Z,16.10
2022-09-12T01:03:14.865Z,16.19
2022-09-12T01:05:49.575Z,16.22
2022-09-12T01:08:17.971Z,16.22
2022-09-12T01:10:46.681Z,16.11
2022-09-12T01:13:15.518Z,15.97
2022-09-12T01:15:43.603Z,16.18
2022-09-12T01:18:21.288Z,16.26
2022-09-12T01:21:10.356Z,16.20
2022-09-12T01:23:51.445Z,16.26
2022-09-12T01:26:54.195Z,16.26
2022-09-12T01:30:04.627Z,16.29
2022-09-12T01:32:41.315Z,16.24
2022-09-12T01:35:16.757Z,16.30
2022-09-12T01:38:25.749Z,16.37
2022-09-12T01:41:03.041Z,16.01
2022-09-12T01:43:49.562Z,15.79
2022-09-12T01:46:29.966Z,16.05
2022-09-12T01:49:09.082Z,15.66
2022-09-12T01:51:41.637Z,15.92
2022-09-12T01:54:21.598Z,16.01
2022-09-12T01:56:53.920Z,16.04
2022-09-12T01:59:28.790Z,16.00
2022-09-12T02:02:03.171Z,16.02
2022-09-12T02:04:52.855Z,15.65
2022-09-12T02:07:38.266Z,15.55
2022-09-12T02:10:09.643Z,15.81
2022-09-12T02:12:46.559Z,15.63
2022-09-12T02:15:16.040Z,15.54
2022-09-12T02:17:46.402Z,15.70
2022-09-12T02:20:48.576Z,15.78
2022-09-12T02:23:23.149Z,15.77
2022-09-12T02:25:55.178Z,15.18
2022-09-12T02:28:28.535Z,15.64
2022-09-12T02:31:34.621Z,15.39
2022-09-12T02:34:25.034Z,15.25
2022-09-12T02:37:02.285Z,15.34
2022-09-12T02:39:30.053Z,15.31
2022-09-12T02:42:01.137Z,15.28
2022-09-12T02:44:31.390Z,14.99
2022-09-12T02:47:11.478Z,15.03
2022-09-12T02:49:39.655Z,15.07
2022-09-12T02:52:07.182Z,14.93
2022-09-12T02:54:35.342Z,15.08
2022-09-12T02:57:02.451Z,15.01
2022-09-12T02:59:29.876Z,14.77
2022-09-12T03:02:17.256Z,14.71
2022-09-12T03:05:30.600Z,14.83
2022-09-12T03:08:12.367Z,14.80
2022-09-12T03:11:08.408Z,14.80
2022-09-12T03:13:45.519Z,14.81
2022-09-12T03:16:35.879Z,14.81
2022-09-12T03:19:25.525Z,14.84
2022-09-12T03:22:04.392Z,14.87
2022-09-12T03:24:38.370Z,14.87
2022-09-12T03:27:24.386Z,14.88
2022-09-12T03:29:53.120Z,14.86
2022-09-12T03:32:20.495Z,14.87
2022-09-12T03:34:48.272Z,14.83
2022-09-12T03:37:15.666Z,14.86
2022-09-12T03:39:43.307Z,14.86
2022-09-12T03:42:10.670Z,14.88
2022-09-12T03:44:38.308Z,14.82
2022-09-12T03:47:10.568Z,14.79
2022-09-12T03:49:38.365Z,14.81
2022-09-12T03:52:05.560Z,14.72
2022-09-12T03:54:32.859Z,14.70
2022-09-12T03:57:00.275Z,14.50
2022-09-12T03:59:27.533Z,14.66
2022-09-12T04:01:54.855Z,14.62
2022-09-12T04:04:22.514Z,14.68
2022-09-12T04:06:49.917Z,14.57
2022-09-12T04:09:17.655Z,14.40
2022-09-12T04:11:44.741Z,14.56
2022-09-12T04:14:12.914Z,14.47
2022-09-12T04:16:40.281Z,14.19
2022-09-12T04:19:08.258Z,14.50
2022-09-12T04:21:36.493Z,14.51
2022-09-12T04:24:05.184Z,14.18
2022-09-12T04:26:32.376Z,14.33
2022-09-12T04:29:00.706Z,14.39
2022-09-12T04:31:28.174Z,14.38
2022-09-12T04:33:59.068Z,14.35
2022-09-12T04:36:28.372Z,14.41
2022-09-12T04:38:56.086Z,13.96
2022-09-12T04:41:26.524Z,14.16
2022-09-12T04:43:58.928Z,14.00
2022-09-12T04:46:27.131Z,13.93
2022-09-12T04:48:57.108Z,13.97
2022-09-12T04:51:36.120Z,14.14
2022-09-12T04:54:09.508Z,14.16
2022-09-12T04:56:42.404Z,14.17
2022-09-12T04:59:10.938Z,14.13
2022-09-12T05:01:38.553Z,14.01
2022-09-12T05:04:06.056Z,14.03
2022-09-12T05:06:36.863Z,14.09
2022-09-12T05:09:07.589Z,13.72
2022-09-12T05:12:02.706Z,13.88
2022-09-12T05:14:25.899Z,13.92
2022-09-12T05:16:53.284Z,14.02
2022-09-12T05:19:21.010Z,13.96
2022-09-12T05:21:47.923Z,14.06
2022-09-12T05:24:15.697Z,13.86
2022-09-12T05:26:42.777Z,13.79
2022-09-12T05:29:10.499Z,13.82
2022-09-12T05:31:37.774Z,13.65
2022-09-12T05:34:07.215Z,13.53
2022-09-12T05:36:34.642Z,13.53
2022-09-12T05:39:04.588Z,13.65
2022-09-12T05:41:33.997Z,13.67
2022-09-12T05:44:05.316Z,13.60
2022-09-12T05:46:41.302Z,13.68
2022-09-12T05:49:11.872Z,13.63
2022-09-12T05:51:43.475Z,13.73
2022-09-12T05:54:14.714Z,13.48
2022-09-12T05:56:44.145Z,13.58
2022-09-12T05:59:14.823Z,13.42
2022-09-12T06:01:42.927Z,13.72
2022-09-12T06:04:11.036Z,13.38
2022-09-12T06:06:50.785Z,13.71
2022-09-12T06:09:18.936Z,13.76
2022-09-12T06:11:46.817Z,13.55
2022-09-12T06:14:17.378Z,13.68
2022-09-12T06:16:45.115Z,13.71
2022-09-12T06:19:18.418Z,13.55
2022-09-12T06:21:46.296Z,13.48
2022-09-12T06:24:14.163Z,13.37
2022-09-12T06:26:42.561Z,13.63
2022-09-12T06:29:11.679Z,13.38
2022-09-12T06:31:44.549Z,13.57
2022-09-12T06:34:14.340Z,13.18
2022-09-12T06:36:45.521Z,13.27
2022-09-12T06:39:18.441Z,13.22
2022-09-12T06:41:47.624Z,13.39
2022-09-12T06:44:17.933Z,13.43
2022-09-12T06:46:46.305Z,13.40
2022-09-12T06:49:14.362Z,13.37
2022-09-12T06:51:43.137Z,13.29
2022-09-12T06:54:13.546Z,13.46
2022-09-12T06:56:41.516Z,13.15
2022-09-12T06:59:08.739Z,13.49
2022-09-12T07:01:36.255Z,13.48
2022-09-12T07:04:05.156Z,13.43
2022-09-12T07:06:38.629Z,13.23
2022-09-12T07:09:09.024Z,13.60
2022-09-12T07:11:38.693Z,13.67
2022-09-12T07:14:08.227Z,13.47
2022-09-12T07:16:36.986Z,13.36
2022-09-12T07:19:06.073Z,13.41
2022-09-12T07:21:33.491Z,13.54
2022-09-12T07:24:01.122Z,13.57
2022-09-12T07:26:30.600Z,13.62
2022-09-12T07:29:19.077Z,13.51
2022-09-12T07:31:47.241Z,13.60
2022-09-12T07:34:15.986Z,13.50
2022-09-12T07:36:43.672Z,13.67
2022-09-12T07:39:11.520Z,13.51
2022-09-12T07:41:39.270Z,13.83
2022-09-12T07:44:07.293Z,13.52
2022-09-12T07:46:35.681Z,13.95
2022-09-12T07:49:03.653Z,13.75
2022-09-12T07:51:32.198Z,14.04
2022-09-12T07:54:00.065Z,14.31
2022-09-12T07:56:31.260Z,14.36
2022-09-12T07:59:00.112Z,14.26
2022-09-12T08:01:27.746Z,14.58
2022-09-12T08:03:57.676Z,14.69
2022-09-12T08:06:26.612Z,14.83
2022-09-12T08:08:56.637Z,14.85
2022-09-12T08:11:25.691Z,14.91
2022-09-12T08:13:56.264Z,14.93
2022-09-12T08:16:29.903Z,14.99
2022-09-12T08:18:57.834Z,14.94
2022-09-12T08:21:27.675Z,15.05
2022-09-12T08:24:04.025Z,15.19
2022-09-12T08:26:32.851Z,15.17
2022-09-12T08:29:00.814Z,15.25
2022-09-12T08:31:29.400Z,15.38
2022-09-12T08:33:58.199Z,15.36
2022-09-12T08:36:28.460Z,15.44
2022-09-12T08:39:01.918Z,15.28
2022-09-12T08:41:39.702Z,15.60
2022-09-12T08:44:25.606Z,15.74
2022-09-12T08:47:05.750Z,15.80
2022-09-12T08:49:57.362Z,15.79
2022-09-12T08:52:31.317Z,15.90
2022-09-12T08:54:59.118Z,15.92
2022-09-12T08:57:26.845Z,16.10
2022-09-12T08:59:54.906Z,15.96
2022-09-12T09:03:01.847Z,16.35
2022-09-12T09:05:49.306Z,16.55
2022-09-12T09:08:28.690Z,16.64
2022-09-12T09:11:26.554Z,16.73
2022-09-12T09:14:31.727Z,16.91
2022-09-12T09:17:01.381Z,17.01
2022-09-12T09:19:37.637Z,16.91
2022-09-12T09:22:23.795Z,17.25
2022-09-12T09:25:02.100Z,16.97
2022-09-12T09:27:40.967Z,16.89
2022-09-12T09:30:18.898Z,17.33
2022-09-12T09:32:52.069Z,17.33
2022-09-12T09:35:46.595Z,17.10
2022-09-12T09:39:00.613Z,17.47
2022-09-12T09:41:56.077Z,17.46
2022-09-12T09:44:24.295Z,17.43
2022-09-12T09:46:56.158Z,17.55
2022-09-12T09:49:26.548Z,17.53
2022-09-12T09:51:56.585Z,17.08
2022-09-12T09:54:41.570Z,17.23
2022-09-12T09:57:36.705Z,17.47
2022-09-12T10:00:23.229Z,17.53
2022-09-12T10:03:08.207Z,17.29
2022-09-12T10:05:50.667Z,17.32
2022-09-12T10:08:36.820Z,17.10
2022-09-12T10:11:07.353Z,17.34
2022-09-12T10:13:36.352Z,17.34
2022-09-12T10:16:08.328Z,17.36
2022-09-12T10:18:42.484Z,17.30
2022-09-12T10:21:19.003Z,17.30
2022-09-12T10:23:48.744Z,17.08
2022-09-12T10:26:20.198Z,17.26
2022-09-12T10:28:52.521Z,17.07
2022-09-12T10:31:32.428Z,17.30
2022-09-12T10:34:01.163Z,17.27
2022-09-12T10:36:41.114Z,17.01
2022-09-12T10:39:18.831Z,17.45
2022-09-12T10:41:47.867Z,17.53
2022-09-12T10:44:26.316Z,17.45
2022-09-12T10:46:55.111Z,17.59
2022-09-12T10:49:28.728Z,17.67
2022-09-12T10:52:16.168Z,17.82
2022-09-12T10:54:44.208Z,17.86
2022-09-12T10:57:14.428Z,17.89
2022-09-12T10:59:57.107Z,17.91
2022-09-12T11:02:51.317Z,17.58
2022-09-12T11:05:43.466Z,17.91
2022-09-12T11:08:38.161Z,17.89
2022-09-12T11:11:18.784Z,17.92
2022-09-12T11:13:57.672Z,17.84
2022-09-12T11:16:49.219Z,17.89
2022-09-12T11:19:34.344Z,17.83
2022-09-12T11:22:45.849Z,17.65
2022-09-12T11:25:20.759Z,17.86
2022-09-12T11:28:14.192Z,17.84
2022-09-12T11:31:19.425Z,17.88
2022-09-12T11:33:54.972Z,17.88
2022-09-12T11:36:38.025Z,17.91
2022-09-12T11:39:18.027Z,17.89
2022-09-12T11:41:51.634Z,17.92
2022-09-12T11:44:24.060Z,17.76
2022-09-12T11:46:52.281Z,18.00
2022-09-12T11:49:25.499Z,18.08
2022-09-12T11:51:58.397Z,18.00
2022-09-12T11:55:00.155Z,17.98
2022-09-12T11:57:37.281Z,17.76
2022-09-12T12:00:10.299Z,17.64
2022-09-12T12:03:07.270Z,17.93
2022-09-12T12:05:41.790Z,18.04
2022-09-12T12:08:11.267Z,18.07
2022-09-12T12:10:56.741Z,18.01
2022-09-12T12:13:36.314Z,18.05
2022-09-12T12:16:25.522Z,18.32
2022-09-12T12:19:02.082Z,18.21
2022-09-12T12:21:36.943Z,18.35
2022-09-12T12:24:13.126Z,18.25
2022-09-12T12:26:42.336Z,18.36
2022-09-12T12:29:44.282Z,18.46
2022-09-12T12:32:36.824Z,18.45
2022-09-12T12:35:46.437Z,18.40
2022-09-12T12:38:39.561Z,18.47
2022-09-12T12:41:19.027Z,18.45
2022-09-12T12:43:52.969Z,18.34
2022-09-12T12:46:26.122Z,18.25
2022-09-12T12:49:25.971Z,18.33
2022-09-12T12:52:01.779Z,18.36
2022-09-12T12:54:41.495Z,18.63
2022-09-12T12:57:40.702Z,18.75
2022-09-12T13:00:44.088Z,18.72
2022-09-12T13:03:28.412Z,18.66
2022-09-12T13:06:02.316Z,18.70
2022-09-12T13:08:35.754Z,18.92
2022-09-12T13:11:27.454Z,18.84
2022-09-12T13:14:04.878Z,18.80
2022-09-12T13:16:52.061Z,18.97
2022-09-12T13:19:30.669Z,18.81
2022-09-12T13:22:10.318Z,18.91
2022-09-12T13:24:49.332Z,19.14
2022-09-12T13:27:20.829Z,19.08
2022-09-12T13:29:48.355Z,19.15
2022-09-12T13:32:18.536Z,19.15
2022-09-12T13:34:46.188Z,19.20
2022-09-12T13:37:35.408Z,19.23
2022-09-12T13:40:18.688Z,19.23
2022-09-12T13:42:50.336Z,19.02
2022-09-12T13:45:28.905Z,19.06
2022-09-12T13:48:04.629Z,19.08
2022-09-12T13:50:39.379Z,18.86
2022-09-12T13:53:11.856Z,18.78
2022-09-12T13:55:54.131Z,18.54
2022-09-12T13:58:23.134Z,18.77
2022-09-12T14:01:08.774Z,18.74
2022-09-12T14:04:18.291Z,18.79
2022-09-12T14:06:49.334Z,18.62
2022-09-12T14:09:41.517Z,18.76
2022-09-12T14:12:43.895Z,18.75
2022-09-12T14:15:38.123Z,18.63
2022-09-12T14:18:09.549Z,18.67
2022-09-12T14:20:38.742Z,18.44
2022-09-12T14:23:25.856Z,18.62
2022-09-12T14:25:55.775Z,18.37
2022-09-12T14:28:23.948Z,18.18
2022-09-12T14:31:07.344Z,18.35
2022-09-12T14:34:15.681Z,18.34
2022-09-12T14:36:50.548Z,18.10
2022-09-12T14:39:17.872Z,18.13
2022-09-12T14:41:46.660Z,17.82
2022-09-12T14:44:27.714Z,17.89
2022-09-12T14:46:55.499Z,18.10
2022-09-12T14:49:36.520Z,17.96
2022-09-12T14:52:21.864Z,18.03
2022-09-12T14:55:28.121Z,17.92
2022-09-12T14:58:16.580Z,18.03
2022-09-12T15:01:12.935Z,17.87
2022-09-12T15:03:51.956Z,18.00
2022-09-12T15:06:38.967Z,17.97
2022-09-12T15:09:09.231Z,17.98
2022-09-12T15:11:37.301Z,17.94
2022-09-12T15:14:14.240Z,17.98
2022-09-12T15:16:42.471Z,17.71
2022-09-12T15:19:09.852Z,17.97
2022-09-12T15:21:36.983Z,17.77
2022-09-12T15:24:04.759Z,17.84
2022-09-12T15:26:33.069Z,17.88
2022-09-12T15:29:01.505Z,17.84
2022-09-12T15:31:32.119Z,17.80
2022-09-12T15:34:03.043Z,17.65
2022-09-12T15:36:31.630Z,17.38
2022-09-12T15:38:59.850Z,17.51
2022-09-12T15:41:37.098Z,17.62
2022-09-12T15:44:06.398Z,17.62
2022-09-12T15:46:33.976Z,17.52
2022-09-12T15:49:02.488Z,17.55
2022-09-12T15:51:29.920Z,17.31
2022-09-12T15:53:58.045Z,17.44
2022-09-12T15:56:25.534Z,17.43
2022-09-12T15:59:00.502Z,17.45
2022-09-12T16:01:29.478Z,17.48
2022-09-12T16:03:57.545Z,17.43
2022-09-12T16:06:25.123Z,17.26
2022-09-12T16:08:53.234Z,17.33
2022-09-12T16:11:23.432Z,17.28
2022-09-12T16:13:53.353Z,17.41
2022-09-12T16:16:21.503Z,17.41
2022-09-12T16:18:48.737Z,17.39
2022-09-12T16:21:16.042Z,17.22
2022-09-12T16:23:44.987Z,17.44
2022-09-12T16:26:13.213Z,17.34
2022-09-12T16:28:41.884Z,17.39
2022-09-12T16:31:12.310Z,17.34
2022-09-12T16:33:41.062Z,17.32
2022-09-12T16:36:11.561Z,17.23
2022-09-12T16:38:47.220Z,17.13
2022-09-12T16:41:17.233Z,17.25
2022-09-12T16:43:46.263Z,17.05
2022-09-12T16:46:19.809Z,17.09
2022-09-12T16:48:55.517Z,17.16
2022-09-12T16:51:26.867Z,17.07
2022-09-12T16:53:55.932Z,17.08
2022-09-12T16:56:24.875Z,17.10
2022-09-12T16:58:53.101Z,16.87
2022-09-12T17:01:23.602Z,16.90
2022-09-12T17:03:56.373Z,16.94
2022-09-12T17:06:25.428Z,16.72
2022-09-12T17:08:54.717Z,16.88
2022-09-12T17:11:25.301Z,16.83
2022-09-12T17:14:05.560Z,16.82
2022-09-12T17:16:36.866Z,16.58
2022-09-12T17:19:05.555Z,16.68
2022-09-12T17:21:32.914Z,16.56
2022-09-12T17:24:01.083Z,16.78
2022-09-12T17:26:28.599Z,16.54
2022-09-12T17:28:56.534Z,16.76
2022-09-12T17:31:23.877Z,16.69
2022-09-12T17:33:51.862Z,16.46
2022-09-12T17:36:19.356Z,16.51
2022-09-12T17:38:47.499Z,16.61
2022-09-12T17:41:17.926Z,16.42
2022-09-12T17:43:50.313Z,16.65
2022-09-12T17:46:19.869Z,16.71
2022-09-12T18:17:53.860Z,16.26
2022-09-12T18:20:21.591Z,16.25
2022-09-12T18:22:52.231Z,16.09
2022-09-12T18:25:19.581Z,16.28
2022-09-12T18:27:46.907Z,16.06
2022-09-12T18:30:21.472Z,16.22
2022-09-12T18:32:49.592Z,16.19
2022-09-12T18:35:17.314Z,15.89
2022-09-12T18:37:45.058Z,16.10
2022-09-12T18:40:12.443Z,15.74
2022-09-12T18:42:39.905Z,15.97
2022-09-12T18:45:07.813Z,15.98
2022-09-12T18:47:35.489Z,15.89
2022-09-12T18:50:02.710Z,15.83
2022-09-12T18:52:31.180Z,15.51
2022-09-12T18:54:58.533Z,15.54
2022-09-12T18:57:26.576Z,15.89
2022-09-12T18:59:54.970Z,15.70
2022-09-12T19:02:25.297Z,15.83
2022-09-12T19:04:52.629Z,15.84
2022-09-12T19:07:21.125Z,15.71
2022-09-12T19:09:48.318Z,15.70
2022-09-12T19:12:16.610Z,15.67
2022-09-12T19:14:43.726Z,15.83
2022-09-12T19:17:11.900Z,15.67
2022-09-12T19:19:40.671Z,15.73
2022-09-12T19:22:08.308Z,15.68
2022-09-12T19:24:35.962Z,15.54
2022-09-12T19:27:03.973Z,15.67
2022-09-12T19:29:31.213Z,15.67
2022-09-12T19:31:58.423Z,15.68
2022-09-12T19:34:25.854Z,15.66
2022-09-12T19:36:54.823Z,15.56
2022-09-12T19:39:24.132Z,15.28
2022-09-12T19:41:54.682Z,15.61
2022-09-12T19:44:23.902Z,15.67
2022-09-12T19:46:51.819Z,15.62
2022-09-12T19:49:20.265Z,15.46
2022-09-12T19:51:47.521Z,15.58
2022-09-12T19:54:14.878Z,15.37
2022-09-12T19:56:42.747Z,15.47
2022-09-12T19:59:09.809Z,15.57
2022-09-12T20:01:37.956Z,15.57
2022-09-12T20:04:06.904Z,15.46
2022-09-12T20:06:34.708Z,15.62
2022-09-12T20:09:02.207Z,15.67
2022-09-12T20:11:29.714Z,15.58
2022-09-12T20:13:56.873Z,15.63
2022-09-12T20:16:26.783Z,15.63
2022-09-12T20:19:00.429Z,15.65
2022-09-12T20:21:34.558Z,15.60
2022-09-12T20:24:12.162Z,15.61
2022-09-12T20:26:41.039Z,15.56
2022-09-12T20:29:09.446Z,15.61
2022-09-12T20:31:39.561Z,15.35
2022-09-12T20:34:12.764Z,15.33
2022-09-12T20:36:40.569Z,15.46
2022-09-12T20:39:08.047Z,15.38
2022-09-12T20:41:36.816Z,15.38
2022-09-12T20:44:04.232Z,15.50
2022-09-12T20:46:32.264Z,15.46
2022-09-12T20:48:59.641Z,15.49
2022-09-12T20:51:27.488Z,15.50
2022-09-12T20:53:57.863Z,15.50
2022-09-12T20:56:27.239Z,15.45
2022-09-12T20:58:55.834Z,15.38
2022-09-12T21:01:24.716Z,15.39
2022-09-12T21:03:53.251Z,15.38
2022-09-12T21:06:22.034Z,15.30
2022-09-12T21:08:50.535Z,15.32
2022-09-12T21:11:20.445Z,15.06
2022-09-12T21:13:47.872Z,15.26
2022-09-12T21:16:18.809Z,15.12
2022-09-12T21:18:47.179Z,15.01
2022-09-12T21:21:16.192Z,15.11
2022-09-12T21:23:43.991Z,15.10
2022-09-12T21:26:12.124Z,14.99
2022-09-12T21:28:40.395Z,15.11
2022-09-12T21:31:07.764Z,14.90
2022-09-12T21:33:36.268Z,14.95
2022-09-12T21:36:05.766Z,15.10
2022-09-12T21:38:34.249Z,15.10
2022-09-12T21:41:09.081Z,15.07
2022-09-12T21:43:37.920Z,15.06
2022-09-12T21:46:06.341Z,14.81
2022-09-12T21:48:34.275Z,15.05
2022-09-12T21:51:02.410Z,14.89
2022-09-12T21:53:30.739Z,14.82
2022-09-12T21:56:05.904Z,14.96
2022-09-12T21:58:33.924Z,14.82
2022-09-12T22:01:01.634Z,15.06
2022-09-12T22:03:30.786Z,15.05
2022-09-12T22:06:03.150Z,14.97
2022-09-12T22:08:32.557Z,14.95
2022-09-12T22:11:02.198Z,14.78
2022-09-12T22:13:34.038Z,14.97
2022-09-12T22:16:03.342Z,14.76
2022-09-12T22:18:34.324Z,14.95
2022-09-12T22:21:24.392Z,14.92
2022-09-12T22:24:10.917Z,14.83
2022-09-12T22:26:43.730Z,14.98
2022-09-12T22:29:13.656Z,14.98
2022-09-12T22:31:41.448Z,14.85
2022-09-12T22:34:09.240Z,14.73
2022-09-12T22:36:38.962Z,15.00
2022-09-12T22:39:07.457Z,15.05
2022-09-12T22:41:35.117Z,14.76
2022-09-12T22:44:02.692Z,14.65
2022-09-12T22:46:30.712Z,14.56
2022-09-12T22:48:58.892Z,14.77
2022-09-12T22:51:28.944Z,14.82
2022-09-12T22:53:57.230Z,14.69
2022-09-12T22:56:24.992Z,14.49
2022-09-12T22:58:53.218Z,14.57
2022-09-12T23:01:20.534Z,14.53
2022-09-12T23:03:48.578Z,14.32
2022-09-12T23:06:16.583Z,14.30
2022-09-12T23:08:44.764Z,13.79
2022-09-12T23:11:18.691Z,14.65
2022-09-12T23:13:48.627Z,14.61
2022-09-12T23:16:19.564Z,14.68
2022-09-12T23:18:47.896Z,14.44
2022-09-12T23:21:17.596Z,14.47
2022-09-12T23:23:45.893Z,14.65
2022-09-12T23:26:14.207Z,14.60
2022-09-12T23:28:47.634Z,14.29
2022-09-12T23:31:15.280Z,14.08
2022-09-12T23:33:44.265Z,14.42
2022-09-12T23:36:14.554Z,14.11
2022-09-12T23:38:43.948Z,14.46
2022-09-12T23:41:13.255Z,14.49
2022-09-12T23:43:41.096Z,14.38
2022-09-12T23:46:09.987Z,13.98
2022-09-12T23:48:37.923Z,13.70
2022-09-12T23:51:06.135Z,14.24
2022-09-12T23:53:35.956Z,13.77
2022-09-12T23:56:04.182Z,13.97
2022-09-12T23:58:31.661Z,14.04
